createdAt,value
2018-05-26T00:02:17.482Z,11.20
2018-05-26T00:04:45.697Z,10.10
2018-05-26T00:07:13.154Z,7.90
2018-05-26T00:09:40.594Z,12.70
2018-05-26T00:12:08.044Z,10.77
2018-05-26T00:14:36.259Z,9.37
2018-05-26T00:17:03.721Z,9.00
2018-05-26T00:19:31.170Z,10.63
2018-05-26T00:21:58.607Z,7.43
2018-05-26T00:24:26.054Z,7.23
2018-05-26T00:26:53.523Z,10.67
2018-05-26T00:29:20.958Z,11.50
2018-05-26T00:31:48.401Z,12.73
2018-05-26T00:34:16.253Z,10.00
2018-05-26T00:36:43.702Z,12.03
2018-05-26T00:39:11.139Z,9.70
2018-05-26T00:41:38.582Z,8.30
2018-05-26T00:44:06.802Z,8.90
2018-05-26T00:46:34.251Z,7.90
2018-05-26T00:49:01.711Z,8.50
2018-05-26T00:51:29.667Z,8.03
2018-05-26T00:53:57.109Z,9.77
2018-05-26T00:56:24.564Z,8.50
2018-05-26T00:58:52.011Z,9.33
2018-05-26T01:01:19.487Z,7.50
2018-05-26T01:03:46.921Z,8.83
2018-05-26T01:06:14.375Z,11.10
2018-05-26T01:08:41.825Z,9.33
2018-05-26T01:11:09.270Z,8.50
2018-05-26T01:13:36.707Z,9.80
2018-05-26T01:16:04.923Z,8.20
2018-05-26T01:18:32.392Z,7.77
2018-05-26T01:20:59.880Z,11.17
2018-05-26T01:23:27.328Z,10.53
2018-05-26T01:25:54.764Z,13.30
2018-05-26T01:28:22.247Z,9.80
2018-05-26T01:30:49.701Z,10.47
2018-05-26T01:33:17.179Z,14.33
2018-05-26T01:35:45.377Z,9.27
2018-05-26T01:38:13.276Z,11.10
2018-05-26T01:40:40.722Z,10.97
2018-05-26T01:43:08.175Z,8.37
2018-05-26T01:45:35.621Z,8.00
2018-05-26T01:48:03.076Z,11.10
2018-05-26T01:50:30.527Z,9.40
2018-05-26T01:52:57.977Z,9.27
2018-05-26T01:55:25.432Z,11.20
2018-05-26T01:57:52.910Z,19.80
2018-05-26T02:00:20.360Z,19.53
2018-05-26T02:02:47.814Z,9.90
2018-05-26T02:05:16.036Z,12.50
2018-05-26T02:07:43.509Z,12.30
2018-05-26T02:10:11.834Z,8.77
2018-05-26T02:12:39.280Z,13.37
2018-05-26T02:15:06.737Z,9.40
2018-05-26T02:17:34.189Z,9.73
2018-05-26T02:20:01.635Z,9.43
2018-05-26T02:22:29.101Z,11.40
2018-05-26T02:24:56.538Z,11.40
2018-05-26T02:27:24.746Z,12.73
2018-05-26T02:29:52.203Z,9.67
2018-05-26T02:32:19.656Z,8.50
2018-05-26T02:34:47.107Z,7.97
2018-05-26T02:37:14.546Z,9.07
2018-05-26T02:39:41.998Z,13.43
2018-05-26T02:42:09.462Z,10.23
2018-05-26T02:44:36.906Z,17.70
2018-05-26T02:47:05.116Z,9.93
2018-05-26T02:49:32.559Z,7.93
2018-05-26T02:52:00.008Z,9.03
2018-05-26T02:54:27.456Z,14.00
2018-05-26T02:56:54.904Z,10.23
2018-05-26T02:59:23.128Z,9.80
2018-05-26T03:01:50.600Z,9.70
2018-05-26T03:04:23.657Z,10.93
2018-05-26T03:06:56.878Z,8.80
2018-05-26T03:09:30.069Z,10.53
2018-05-26T03:12:03.100Z,14.23
2018-05-26T03:14:37.128Z,9.90
2018-05-26T03:17:05.017Z,10.80
2018-05-26T03:19:32.450Z,8.60
2018-05-26T03:21:59.900Z,9.90
2018-05-26T03:24:27.338Z,7.83
2018-05-26T03:26:55.552Z,12.00
2018-05-26T03:29:23.008Z,8.30
2018-05-26T03:31:50.454Z,15.83
2018-05-26T03:34:17.913Z,8.50
2018-05-26T03:36:46.128Z,14.23
2018-05-26T03:39:13.599Z,18.00
2018-05-26T03:41:41.047Z,11.77
2018-05-26T03:44:08.489Z,11.87
2018-05-26T03:46:35.945Z,12.43
2018-05-26T03:49:03.371Z,7.17
2018-05-26T03:51:30.826Z,8.20
2018-05-26T03:53:58.280Z,8.47
2018-05-26T03:56:37.702Z,8.43
2018-05-26T04:02:12.503Z,14.30
2018-05-26T04:04:39.955Z,10.90
2018-05-26T04:07:07.411Z,15.50
2018-05-26T04:09:34.850Z,13.77
2018-05-26T04:12:02.303Z,15.87
2018-05-26T04:14:29.743Z,12.13
2018-05-26T04:16:57.191Z,8.47
2018-05-26T04:19:24.637Z,8.70
2018-05-26T04:21:52.852Z,10.13
2018-05-26T04:24:20.305Z,12.33
2018-05-26T04:26:47.759Z,18.53
2018-05-26T04:29:15.242Z,7.67
2018-05-26T04:31:42.688Z,11.00
2018-05-26T04:34:10.127Z,10.60
2018-05-26T04:36:37.571Z,7.97
2018-05-26T04:39:05.090Z,9.97
2018-05-26T04:41:32.549Z,9.37
2018-05-26T04:44:00.786Z,11.47
2018-05-26T04:46:28.240Z,11.33
2018-05-26T04:48:55.687Z,15.03
2018-05-26T04:51:23.894Z,7.70
2018-05-26T04:53:52.105Z,7.83
2018-05-26T04:56:19.557Z,10.13
2018-05-26T04:58:47.765Z,8.10
2018-05-26T05:01:15.212Z,7.00
2018-05-26T05:03:42.665Z,7.87
2018-05-26T05:06:10.135Z,7.00
2018-05-26T05:08:37.571Z,9.77
2018-05-26T05:11:05.023Z,7.47
2018-05-26T05:13:32.468Z,7.63
2018-05-26T05:16:00.683Z,8.10
2018-05-26T05:18:28.110Z,10.30
2018-05-26T05:20:55.561Z,10.30
2018-05-26T05:23:23.771Z,12.97
2018-05-26T05:25:51.214Z,6.67
2018-05-26T05:28:18.649Z,6.70
2018-05-26T05:30:46.243Z,5.13
2018-05-26T05:33:13.685Z,7.43
2018-05-26T05:35:41.125Z,6.77
2018-05-26T05:38:08.575Z,8.70
2018-05-26T05:40:36.782Z,10.77
2018-05-26T05:43:04.239Z,6.30
2018-05-26T05:45:31.689Z,6.27
2018-05-26T05:47:59.133Z,22.77
2018-05-26T05:50:26.595Z,5.77
2018-05-26T05:52:54.052Z,7.03
2018-05-26T05:55:21.483Z,5.53
2018-05-26T05:57:49.698Z,12.67
2018-05-26T06:00:17.148Z,9.83
2018-05-26T06:02:44.591Z,6.20
2018-05-26T06:05:12.041Z,7.60
2018-05-26T06:07:39.491Z,10.50
2018-05-26T06:10:07.701Z,7.00
2018-05-26T06:12:35.137Z,8.63
2018-05-26T06:15:02.623Z,14.40
2018-05-26T06:17:30.033Z,7.30
2018-05-26T06:19:57.479Z,11.80
2018-05-26T06:22:28.849Z,6.70
2018-05-26T06:24:56.287Z,10.00
2018-05-26T06:27:24.491Z,6.40
2018-05-26T06:29:51.939Z,6.27
2018-05-26T06:32:19.635Z,7.47
2018-05-26T06:34:47.079Z,7.43
2018-05-26T06:37:14.531Z,4.60
2018-05-26T06:39:41.970Z,8.40
2018-05-26T06:42:09.422Z,6.93
2018-05-26T06:44:37.627Z,8.30
2018-05-26T06:47:05.075Z,4.60
2018-05-26T06:49:32.516Z,9.80
2018-05-26T06:51:59.965Z,4.43
2018-05-26T06:54:27.401Z,11.90
2018-05-26T06:56:55.623Z,5.33
2018-05-26T06:59:23.065Z,5.87
2018-05-26T07:01:51.297Z,4.27
2018-05-26T07:04:18.734Z,4.53
2018-05-26T07:06:46.201Z,7.80
2018-05-26T07:09:13.650Z,4.47
2018-05-26T07:11:41.146Z,3.07
2018-05-26T07:14:08.543Z,4.07
2018-05-26T07:16:35.993Z,3.90
2018-05-26T07:19:03.448Z,4.63
2018-05-26T07:21:30.887Z,6.83
2018-05-26T07:23:58.323Z,3.80
2018-05-26T07:26:26.593Z,4.53
2018-05-26T07:28:54.809Z,3.20
2018-05-26T07:31:22.252Z,3.73
2018-05-26T07:33:49.746Z,6.10
2018-05-26T07:36:17.157Z,10.80
2018-05-26T07:38:44.625Z,5.90
2018-05-26T07:41:12.081Z,8.23
2018-05-26T07:43:39.601Z,4.23
2018-05-26T07:46:07.603Z,7.40
2018-05-26T07:48:35.064Z,3.40
2018-05-26T07:51:02.518Z,5.97
2018-05-26T07:53:29.963Z,3.23
2018-05-26T07:55:57.423Z,4.33
2018-05-26T07:58:25.630Z,6.50
2018-05-26T08:00:53.091Z,3.53
2018-05-26T08:03:20.557Z,4.33
2018-05-26T08:05:47.994Z,3.10
2018-05-26T08:08:15.454Z,4.50
2018-05-26T08:10:42.902Z,4.40
2018-05-26T08:13:10.346Z,3.80
2018-05-26T08:15:37.786Z,2.80
2018-05-26T08:18:05.239Z,2.63
2018-05-26T08:20:32.681Z,3.17
2018-05-26T08:23:00.114Z,3.23
2018-05-26T08:25:27.566Z,3.40
2018-05-26T08:27:55.026Z,4.00
2018-05-26T08:30:22.455Z,2.90
2018-05-26T08:32:49.907Z,2.60
2018-05-26T08:35:17.344Z,6.20
2018-05-26T08:37:44.771Z,4.20
2018-05-26T08:40:12.222Z,3.27
2018-05-26T08:42:39.671Z,4.43
2018-05-26T08:45:07.135Z,3.63
2018-05-26T08:47:34.572Z,2.70
2018-05-26T08:50:02.008Z,3.13
2018-05-26T08:52:29.467Z,4.63
2018-05-26T08:54:57.004Z,2.50
2018-05-26T08:57:24.404Z,3.13
2018-05-26T08:59:51.853Z,4.60
2018-05-26T09:02:19.629Z,9.87
2018-05-26T09:04:47.778Z,2.90
2018-05-26T09:07:15.223Z,7.83
2018-05-26T09:09:42.694Z,2.63
2018-05-26T09:12:10.128Z,3.20
2018-05-26T09:14:37.566Z,2.33
2018-05-26T09:17:05.016Z,2.30
2018-05-26T09:19:33.219Z,9.80
2018-05-26T09:22:00.672Z,4.53
2018-05-26T09:24:28.135Z,2.97
2018-05-26T09:26:55.564Z,6.00
2018-05-26T09:29:23.781Z,2.53
2018-05-26T09:31:51.229Z,5.33
2018-05-26T09:34:18.681Z,4.03
2018-05-26T09:36:46.130Z,4.40
2018-05-26T09:39:13.581Z,3.37
2018-05-26T09:41:41.022Z,5.00
2018-05-26T09:44:09.256Z,10.10
2018-05-26T09:46:36.699Z,2.43
2018-05-26T09:49:04.151Z,5.03
2018-05-26T09:51:31.625Z,3.40
2018-05-26T09:53:59.076Z,2.80
2018-05-26T09:56:26.582Z,2.20
2018-05-26T09:58:53.981Z,5.57
2018-05-26T10:01:21.417Z,2.83
2018-05-26T10:03:49.632Z,3.67
2018-05-26T10:06:17.084Z,1.67
2018-05-26T10:08:44.528Z,2.80
2018-05-26T10:11:11.975Z,3.23
2018-05-26T10:13:39.441Z,3.70
2018-05-26T10:16:06.895Z,3.03
2018-05-26T10:18:34.351Z,2.43
2018-05-26T10:21:01.802Z,3.03
2018-05-26T10:23:29.241Z,2.80
2018-05-26T10:25:56.702Z,2.10
2018-05-26T10:28:24.136Z,2.33
2018-05-26T10:30:52.330Z,2.67
2018-05-26T10:33:19.766Z,2.40
2018-05-26T10:35:47.227Z,3.00
2018-05-26T10:38:14.720Z,2.47
2018-05-26T10:40:42.880Z,2.60
2018-05-26T10:43:10.337Z,4.67
2018-05-26T10:45:39.717Z,3.67
2018-05-26T10:48:07.171Z,5.37
2018-05-26T10:50:34.613Z,3.20
2018-05-26T10:53:02.847Z,3.33
2018-05-26T10:55:30.287Z,3.67
2018-05-26T10:57:57.722Z,7.43
2018-05-26T11:00:25.179Z,7.17
2018-05-26T11:02:52.623Z,4.87
2018-05-26T11:05:20.825Z,2.90
2018-05-26T11:07:49.035Z,4.83
2018-05-26T11:10:16.475Z,5.50
2018-05-26T11:12:43.931Z,4.30
2018-05-26T11:15:11.411Z,5.13
2018-05-26T11:17:38.824Z,3.00
2018-05-26T11:20:06.274Z,5.63
2018-05-26T11:22:34.472Z,2.60
2018-05-26T11:25:01.922Z,2.87
2018-05-26T11:27:29.387Z,4.20
2018-05-26T11:29:56.834Z,4.10
2018-05-26T11:32:24.278Z,2.40
2018-05-26T11:34:51.723Z,3.47
2018-05-26T11:37:19.166Z,3.40
2018-05-26T11:39:47.371Z,3.90
2018-05-26T11:42:14.971Z,2.90
2018-05-26T11:44:42.419Z,2.77
2018-05-26T11:47:09.870Z,3.50
2018-05-26T11:49:37.334Z,7.70
2018-05-26T11:52:04.764Z,5.87
2018-05-26T11:54:32.224Z,3.57
2018-05-26T11:56:59.663Z,3.17
2018-05-26T11:59:27.524Z,11.53
2018-05-26T12:01:55.034Z,2.63
2018-05-26T12:04:22.423Z,3.47
2018-05-26T12:06:49.860Z,2.30
2018-05-26T12:09:18.099Z,2.70
2018-05-26T12:11:45.553Z,4.33
2018-05-26T12:14:13.014Z,7.33
2018-05-26T12:16:40.466Z,5.87
2018-05-26T12:19:07.928Z,2.57
2018-05-26T12:21:35.362Z,6.50
2018-05-26T12:24:02.824Z,2.90
2018-05-26T12:26:30.272Z,3.30
2018-05-26T12:28:57.704Z,2.30
2018-05-26T12:31:25.179Z,2.50
2018-05-26T12:33:52.625Z,2.57
2018-05-26T12:36:20.843Z,5.30
2018-05-26T12:38:48.282Z,7.80
2018-05-26T12:41:15.745Z,10.30
2018-05-26T12:43:43.195Z,13.63
2018-05-26T12:46:10.670Z,2.63
2018-05-26T12:48:38.204Z,2.50
2018-05-26T12:51:05.647Z,4.03
2018-05-26T12:53:33.098Z,4.53
2018-05-26T12:56:00.540Z,5.30
2018-05-26T12:58:28.760Z,2.33
2018-05-26T13:00:59.537Z,7.20
2018-05-26T13:03:27.755Z,2.30
2018-05-26T13:05:55.192Z,4.90
2018-05-26T13:08:22.640Z,2.90
2018-05-26T13:10:50.082Z,4.83
2018-05-26T13:13:18.314Z,3.10
2018-05-26T13:15:45.791Z,2.33
2018-05-26T13:18:13.325Z,5.00
2018-05-26T13:20:40.827Z,3.80
2018-05-26T13:23:09.082Z,2.63
2018-05-26T13:25:36.577Z,3.27
2018-05-26T13:28:04.075Z,3.50
2018-05-26T13:30:31.529Z,2.53
2018-05-26T13:32:58.991Z,4.83
2018-05-26T13:35:26.435Z,4.73
2018-05-26T13:37:53.885Z,6.33
2018-05-26T13:40:21.344Z,3.20
2018-05-26T13:42:48.793Z,4.40
2018-05-26T13:45:16.258Z,3.47
2018-05-26T13:47:43.697Z,7.13
2018-05-26T13:50:11.195Z,3.00
2018-05-26T13:52:38.714Z,3.17
2018-05-26T13:55:06.958Z,5.07
2018-05-26T13:57:35.221Z,2.10
2018-05-26T14:00:02.672Z,2.60
2018-05-26T14:02:30.112Z,2.40
2018-05-26T14:04:57.555Z,2.40
2018-05-26T14:07:25.062Z,2.90
2018-05-26T14:09:52.519Z,4.70
2018-05-26T14:12:20.735Z,3.13
2018-05-26T14:14:48.191Z,2.53
2018-05-26T14:17:15.642Z,2.30
2018-05-26T14:19:43.092Z,2.63
2018-05-26T14:22:10.534Z,4.47
2018-05-26T14:24:38.039Z,1.93
2018-05-26T14:27:05.492Z,2.70
2018-05-26T14:29:33.024Z,1.93
2018-05-26T14:32:00.491Z,3.30
2018-05-26T14:34:27.939Z,2.97
2018-05-26T14:36:55.395Z,3.13
2018-05-26T14:39:22.845Z,2.17
2018-05-26T14:41:50.295Z,3.33
2018-05-26T14:44:17.747Z,2.80
2018-05-26T14:46:45.182Z,2.87
2018-05-26T14:49:13.400Z,2.40
2018-05-26T14:51:40.868Z,3.07
2018-05-26T14:54:08.320Z,3.33
2018-05-26T14:56:35.763Z,6.53
2018-05-26T14:59:03.204Z,7.33
2018-05-26T15:01:30.642Z,3.27
2018-05-26T15:03:58.854Z,7.87
2018-05-26T15:06:26.287Z,4.03
2018-05-26T15:08:53.726Z,7.10
2018-05-26T15:11:21.946Z,5.67
2018-05-26T15:13:49.398Z,10.03
2018-05-26T15:16:17.613Z,11.63
2018-05-26T15:18:45.042Z,4.27
2018-05-26T15:21:12.485Z,4.53
2018-05-26T15:23:40.705Z,5.70
2018-05-26T15:26:08.146Z,6.23
2018-05-26T15:28:35.589Z,4.43
2018-05-26T15:31:03.045Z,4.30
2018-05-26T15:33:30.479Z,8.20
2018-05-26T15:35:59.840Z,7.53
2018-05-26T15:38:27.289Z,6.00
2018-05-26T15:40:54.730Z,7.37
2018-05-26T15:43:22.203Z,5.80
2018-05-26T15:45:49.647Z,7.17
2018-05-26T15:48:17.105Z,5.90
2018-05-26T15:50:44.560Z,5.17
2018-05-26T15:53:12.009Z,5.00
2018-05-26T15:55:39.465Z,7.90
2018-05-26T15:58:06.911Z,4.83
2018-05-26T16:00:34.350Z,6.30
2018-05-26T16:03:01.825Z,6.20
2018-05-26T16:05:29.286Z,5.00
2018-05-26T16:07:56.736Z,18.33
2018-05-26T16:10:24.248Z,7.17
2018-05-26T16:12:52.514Z,6.70
2018-05-26T16:15:20.776Z,4.30
2018-05-26T16:17:49.074Z,5.43
2018-05-26T16:20:16.580Z,4.03
2018-05-26T16:22:44.033Z,8.50
2018-05-26T16:25:12.256Z,4.33
2018-05-26T16:27:39.693Z,4.70
2018-05-26T16:30:07.147Z,4.10
2018-05-26T16:32:34.585Z,5.50
2018-05-26T16:35:02.152Z,6.60
2018-05-26T16:37:29.609Z,3.97
2018-05-26T16:39:57.060Z,4.40
2018-05-26T16:42:24.497Z,13.63
2018-05-26T16:44:51.935Z,4.10
2018-05-26T16:47:19.393Z,4.00
2018-05-26T16:49:46.832Z,4.20
2018-05-26T16:52:15.072Z,4.87
2018-05-26T16:54:42.539Z,5.00
2018-05-26T16:57:10.004Z,9.60
2018-05-26T16:59:37.438Z,6.77
2018-05-26T17:02:04.878Z,4.30
2018-05-26T17:04:32.327Z,3.03
2018-05-26T17:06:59.766Z,4.90
2018-05-26T17:09:27.226Z,5.80
2018-05-26T17:11:54.657Z,6.00
2018-05-26T17:14:22.875Z,4.50
2018-05-26T17:16:50.316Z,3.83
2018-05-26T17:19:17.790Z,15.30
2018-05-26T17:21:45.226Z,4.10
2018-05-26T17:24:12.675Z,3.93
2018-05-26T17:26:40.129Z,4.10
2018-05-26T17:29:07.569Z,3.40
2018-05-26T17:31:35.794Z,4.00
2018-05-26T17:34:03.233Z,4.20
2018-05-26T17:36:30.721Z,2.90
2018-05-26T17:38:58.132Z,5.23
2018-05-26T17:41:25.603Z,3.20
2018-05-26T17:43:53.055Z,7.00
2018-05-26T17:46:20.502Z,4.07
2018-05-26T17:48:48.526Z,5.30
2018-05-26T17:51:15.996Z,6.27
2018-05-26T17:53:43.437Z,6.70
2018-05-26T17:56:10.956Z,6.57
2018-05-26T17:58:38.404Z,4.57
2018-05-26T18:01:05.857Z,4.10
2018-05-26T18:03:33.323Z,4.97
2018-05-26T18:06:00.780Z,3.40
2018-05-26T18:08:28.238Z,3.17
2018-05-26T18:10:55.674Z,4.20
2018-05-26T18:13:23.126Z,4.40
2018-05-26T18:15:50.581Z,4.80
2018-05-26T18:18:18.019Z,5.70
2018-05-26T18:20:45.474Z,3.60
2018-05-26T18:23:12.918Z,8.63
2018-05-26T18:25:40.396Z,10.43
2018-05-26T18:28:08.607Z,21.93
2018-05-26T18:30:36.047Z,23.73
2018-05-26T18:33:03.490Z,12.03
2018-05-26T18:35:31.712Z,14.47
2018-05-26T18:37:59.159Z,7.43
2018-05-26T18:40:26.639Z,3.00
2018-05-26T18:43:00.252Z,4.07
2018-05-26T18:45:27.695Z,14.57
2018-05-26T18:47:55.152Z,4.03
2018-05-26T18:50:22.610Z,4.47
2018-05-26T18:52:50.058Z,8.37
2018-05-26T18:55:17.547Z,6.47
2018-05-26T18:57:44.996Z,4.20
2018-05-26T19:00:12.426Z,8.67
2018-05-26T19:02:39.872Z,5.87
2018-05-26T19:05:07.334Z,5.40
2018-05-26T19:07:34.799Z,5.30
2018-05-26T19:10:02.244Z,6.07
2018-05-26T19:12:29.696Z,4.47
2018-05-26T19:15:04.029Z,6.00
2018-05-26T19:17:31.472Z,6.40
2018-05-26T19:19:58.927Z,9.37
2018-05-26T19:22:26.375Z,7.90
2018-05-26T19:24:53.818Z,8.80
2018-05-26T19:27:21.263Z,9.03
2018-05-26T19:29:48.717Z,8.00
2018-05-26T19:32:16.924Z,10.07
2018-05-26T19:34:44.406Z,7.77
2018-05-26T19:37:11.881Z,11.40
2018-05-26T19:39:45.468Z,11.97
2018-05-26T19:42:12.920Z,23.60
2018-05-26T19:44:46.972Z,15.87
2018-05-26T19:47:14.454Z,24.53
2018-05-26T19:49:41.911Z,8.53
2018-05-26T19:52:09.368Z,15.63
2018-05-26T19:54:36.802Z,8.43
2018-05-26T19:57:10.562Z,7.90
2018-05-26T19:59:38.009Z,8.10
2018-05-26T20:02:05.461Z,8.80
2018-05-26T20:04:39.031Z,6.30
2018-05-26T20:07:06.483Z,6.63
2018-05-26T20:09:33.936Z,11.37
2018-05-26T20:12:01.392Z,7.20
2018-05-26T20:14:34.788Z,14.97
2018-05-26T20:17:03.007Z,10.17
2018-05-26T20:19:30.444Z,19.57
2018-05-26T20:21:57.917Z,24.53
2018-05-26T20:24:25.472Z,10.70
2018-05-26T20:26:56.253Z,11.80
2018-05-26T20:29:23.697Z,16.73
2018-05-26T20:31:51.162Z,29.80
2018-05-26T20:34:19.376Z,30.07
2018-05-26T20:36:46.835Z,29.67
2018-05-26T20:39:14.301Z,21.13
2018-05-26T20:41:41.773Z,25.50
2018-05-26T20:44:09.213Z,28.40
2018-05-26T20:46:36.679Z,17.80
2018-05-26T20:49:04.130Z,21.97
2018-05-26T20:51:31.598Z,17.60
2018-05-26T20:54:04.297Z,21.93
2018-05-26T20:56:42.986Z,23.97
2018-05-26T20:59:10.426Z,26.70
2018-05-26T21:01:51.016Z,21.27
2018-05-26T21:04:20.405Z,23.70
2018-05-26T21:06:47.863Z,32.53
2018-05-26T21:09:21.582Z,30.20
2018-05-26T21:11:49.214Z,28.63
2018-05-26T21:14:16.668Z,34.80
2018-05-26T21:16:54.208Z,30.97
2018-05-26T21:19:28.516Z,30.50
2018-05-26T21:21:55.964Z,38.97
2018-05-26T21:24:23.397Z,39.37
2018-05-26T21:26:52.749Z,28.63
2018-05-26T21:29:27.547Z,28.50
2018-05-26T21:31:55.032Z,25.67
2018-05-26T21:34:22.475Z,24.07
2018-05-26T21:36:49.929Z,26.40
2018-05-26T21:39:17.374Z,15.97
2018-05-26T21:41:44.834Z,14.77
2018-05-26T21:44:12.297Z,21.43
2018-05-26T21:46:39.744Z,16.37
2018-05-26T21:49:07.200Z,19.80
2018-05-26T21:51:34.655Z,18.87
2018-05-26T21:54:02.193Z,23.23
2018-05-26T21:56:29.673Z,17.87
2018-05-26T21:58:57.111Z,18.53
2018-05-26T22:01:24.562Z,16.03
2018-05-26T22:03:52.015Z,21.93
2018-05-26T22:06:19.467Z,20.83
2018-05-26T22:08:46.928Z,20.80
2018-05-26T22:11:20.358Z,17.50
2018-05-26T22:13:47.809Z,19.10
2018-05-26T22:16:18.212Z,17.77
2018-05-26T22:18:51.924Z,18.20
2018-05-26T22:21:19.368Z,18.00
2018-05-26T22:23:46.834Z,14.10
2018-05-26T22:26:14.296Z,14.13
2018-05-26T22:28:41.742Z,11.00
2018-05-26T22:31:09.194Z,16.40
2018-05-26T22:33:36.647Z,9.20
2018-05-26T22:36:04.094Z,17.20
2018-05-26T22:38:31.566Z,13.07
2018-05-26T22:40:59.024Z,10.97
2018-05-26T22:43:26.485Z,19.80
2018-05-26T22:45:53.943Z,13.33
2018-05-26T22:48:21.402Z,12.70
2018-05-26T22:50:48.856Z,13.50
2018-05-26T22:53:16.315Z,15.67
2018-05-26T22:55:43.783Z,10.43
2018-05-26T22:58:11.230Z,9.27
2018-05-26T23:00:38.680Z,14.20
2018-05-26T23:03:06.126Z,9.70
2018-05-26T23:05:33.584Z,10.83
2018-05-26T23:08:01.040Z,18.80
2018-05-26T23:10:28.487Z,12.30
2018-05-26T23:12:55.947Z,13.47
2018-05-26T23:15:23.396Z,9.00
2018-05-26T23:17:50.836Z,8.43
2018-05-26T23:20:19.052Z,11.37
2018-05-26T23:22:46.502Z,11.00
2018-05-26T23:25:13.950Z,8.33
2018-05-26T23:27:41.391Z,13.80
2018-05-26T23:30:08.847Z,11.87
2018-05-26T23:32:36.297Z,11.47
2018-05-26T23:35:04.504Z,13.30
2018-05-26T23:37:31.998Z,12.87
2018-05-26T23:39:59.444Z,9.63
2018-05-26T23:42:26.947Z,15.17
2018-05-26T23:44:54.359Z,20.30
2018-05-26T23:47:21.803Z,18.53
2018-05-26T23:49:49.259Z,17.57
2018-05-26T23:52:16.695Z,10.90
2018-05-26T23:54:44.139Z,16.50
2018-05-26T23:57:11.594Z,15.50
2018-05-26T23:59:39.044Z,17.10
